createdAt,value
2018-04-23T00:02:10.101Z,7.97
2018-04-23T00:04:38.617Z,10.00
2018-04-23T00:07:06.552Z,7.90
2018-04-23T00:09:35.729Z,9.83
2018-04-23T00:12:03.510Z,5.90
2018-04-23T00:14:31.208Z,15.67
2018-04-23T00:16:59.773Z,10.93
2018-04-23T00:19:27.465Z,12.90
2018-04-23T00:21:55.211Z,11.23
2018-04-23T00:24:23.785Z,15.17
2018-04-23T00:26:52.313Z,14.37
2018-04-23T00:29:20.052Z,10.03
2018-04-23T00:31:47.770Z,7.97
2018-04-23T00:34:15.480Z,13.07
2018-04-23T00:36:43.987Z,10.60
2018-04-23T00:39:11.740Z,13.87
2018-04-23T00:41:39.529Z,10.23
2018-04-23T00:44:07.308Z,11.40
2018-04-23T00:46:34.997Z,12.83
2018-04-23T00:49:02.811Z,10.90
2018-04-23T00:51:31.371Z,14.87
2018-04-23T00:53:59.140Z,19.10
2018-04-23T00:56:27.612Z,18.07
2018-04-23T00:58:55.336Z,20.17
2018-04-23T01:01:23.089Z,16.77
2018-04-23T01:03:50.833Z,12.73
2018-04-23T01:06:19.340Z,14.40
2018-04-23T01:08:47.101Z,11.63
2018-04-23T01:11:15.020Z,13.43
2018-04-23T01:13:42.718Z,9.50
2018-04-23T01:16:11.213Z,17.17
2018-04-23T01:18:38.948Z,16.73
2018-04-23T01:21:06.681Z,12.27
2018-04-23T01:23:34.418Z,13.33
2018-04-23T01:26:02.944Z,16.27
2018-04-23T01:28:30.642Z,16.53
2018-04-23T01:30:58.746Z,10.83
2018-04-23T01:33:27.239Z,9.17
2018-04-23T01:35:57.774Z,11.97
2018-04-23T01:38:25.532Z,11.97
2018-04-23T01:40:53.254Z,15.17
2018-04-23T01:43:21.069Z,14.47
2018-04-23T01:45:48.807Z,18.03
2018-04-23T01:48:17.289Z,16.33
2018-04-23T01:50:45.052Z,8.67
2018-04-23T01:53:13.074Z,20.07
2018-04-23T01:55:40.828Z,19.67
2018-04-23T01:58:08.687Z,11.97
2018-04-23T02:00:36.457Z,16.30
2018-04-23T02:03:04.202Z,11.93
2018-04-23T02:05:32.713Z,17.70
2018-04-23T02:08:00.461Z,13.47
2018-04-23T02:10:28.387Z,14.10
2018-04-23T02:12:56.125Z,13.70
2018-04-23T02:15:23.883Z,23.00
2018-04-23T02:17:51.621Z,13.37
2018-04-23T02:20:19.384Z,15.80
2018-04-23T02:22:47.134Z,11.03
2018-04-23T02:25:14.842Z,18.70
2018-04-23T02:27:42.604Z,7.73
2018-04-23T02:30:10.365Z,15.43
2018-04-23T02:32:38.070Z,15.97
2018-04-23T02:35:05.870Z,14.80
2018-04-23T02:37:33.585Z,15.87
2018-04-23T02:40:01.321Z,17.00
2018-04-23T02:42:29.820Z,22.27
2018-04-23T02:44:57.548Z,16.73
2018-04-23T02:47:25.425Z,14.63
2018-04-23T02:49:53.130Z,13.40
2018-04-23T02:52:22.637Z,12.70
2018-04-23T02:54:51.110Z,18.03
2018-04-23T02:57:18.833Z,16.03
2018-04-23T02:59:47.362Z,14.80
2018-04-23T03:02:15.817Z,19.33
2018-04-23T03:04:43.511Z,14.33
2018-04-23T03:07:12.042Z,19.07
2018-04-23T03:09:39.736Z,16.73
2018-04-23T03:12:07.585Z,22.83
2018-04-23T03:14:35.287Z,14.60
2018-04-23T03:17:03.828Z,16.03
2018-04-23T03:19:31.562Z,21.23
2018-04-23T03:21:59.305Z,13.53
2018-04-23T03:24:27.770Z,15.63
2018-04-23T03:26:55.569Z,16.13
2018-04-23T03:29:23.698Z,12.53
2018-04-23T03:31:51.575Z,12.33
2018-04-23T03:34:19.292Z,13.20
2018-04-23T03:36:47.857Z,18.40
2018-04-23T03:39:17.017Z,14.37
2018-04-23T03:41:44.873Z,17.13
2018-04-23T03:44:12.924Z,18.13
2018-04-23T03:46:40.622Z,15.23
2018-04-23T03:49:08.352Z,13.47
2018-04-23T03:51:36.868Z,16.67
2018-04-23T03:54:04.576Z,12.73
2018-04-23T03:56:32.474Z,12.47
2018-04-23T03:59:00.209Z,18.30
2018-04-23T04:01:28.090Z,10.77
2018-04-23T04:03:56.620Z,16.77
2018-04-23T04:06:24.398Z,12.33
2018-04-23T04:08:52.148Z,14.97
2018-04-23T04:11:19.934Z,15.27
2018-04-23T04:14:00.274Z,15.03
2018-04-23T04:16:39.796Z,11.53
2018-04-23T04:19:07.561Z,12.90
2018-04-23T04:21:36.229Z,21.13
2018-04-23T04:24:04.741Z,16.30
2018-04-23T04:26:32.494Z,27.43
2018-04-23T04:29:00.992Z,22.77
2018-04-23T04:31:28.758Z,16.90
2018-04-23T04:33:56.666Z,19.20
2018-04-23T04:36:24.417Z,15.13
2018-04-23T04:38:52.216Z,11.90
2018-04-23T04:41:20.073Z,14.57
2018-04-23T04:43:48.605Z,19.90
2018-04-23T04:46:16.295Z,15.57
2018-04-23T04:48:44.037Z,11.57
2018-04-23T04:51:12.685Z,16.53
2018-04-23T04:53:40.550Z,13.00
2018-04-23T04:56:08.307Z,13.93
2018-04-23T04:58:36.001Z,16.57
2018-04-23T05:01:03.767Z,15.90
2018-04-23T05:03:31.469Z,15.33
2018-04-23T05:05:59.232Z,20.97
2018-04-23T05:08:26.965Z,16.27
2018-04-23T05:10:55.505Z,15.93
2018-04-23T05:13:23.272Z,13.50
2018-04-23T05:15:51.005Z,12.40
2018-04-23T05:18:19.488Z,9.63
2018-04-23T05:20:48.025Z,13.77
2018-04-23T05:23:15.799Z,11.60
2018-04-23T05:25:43.522Z,11.13
2018-04-23T05:28:11.283Z,20.17
2018-04-23T05:30:39.784Z,15.90
2018-04-23T05:33:07.530Z,9.77
2018-04-23T05:35:36.937Z,11.17
2018-04-23T05:38:05.190Z,20.43
2018-04-23T05:40:34.511Z,18.30
2018-04-23T05:43:02.589Z,12.00
2018-04-23T05:45:47.422Z,10.10
2018-04-23T05:48:15.920Z,7.97
2018-04-23T05:50:44.865Z,12.47
2018-04-23T05:53:12.529Z,23.47
2018-04-23T05:55:40.149Z,16.13
2018-04-23T05:58:07.796Z,10.67
2018-04-23T06:00:35.524Z,16.20
2018-04-23T06:03:03.147Z,18.13
2018-04-23T06:05:30.776Z,14.13
2018-04-23T06:07:58.407Z,15.20
2018-04-23T06:10:26.151Z,17.60
2018-04-23T06:12:53.830Z,18.17
2018-04-23T06:15:21.481Z,16.73
2018-04-23T06:17:50.626Z,17.73
2018-04-23T06:22:52.111Z,14.93
2018-04-23T06:25:20.391Z,13.47
2018-04-23T06:27:48.076Z,17.20
2018-04-23T06:30:15.724Z,19.67
2018-04-23T06:32:43.396Z,18.43
2018-04-23T06:35:11.155Z,17.70
2018-04-23T06:37:39.028Z,21.70
2018-04-23T06:40:06.625Z,13.80
2018-04-23T06:42:34.409Z,22.07
2018-04-23T06:45:02.277Z,14.57
2018-04-23T06:47:30.664Z,15.97
2018-04-23T06:49:59.085Z,16.03
2018-04-23T06:52:26.795Z,16.30
2018-04-23T06:54:55.947Z,13.23
2018-04-23T06:57:23.857Z,10.63
2018-04-23T06:59:51.508Z,17.73
2018-04-23T07:02:19.172Z,15.60
2018-04-23T07:04:46.917Z,11.17
2018-04-23T07:07:14.560Z,13.67
2018-04-23T07:09:42.152Z,15.10
2018-04-23T07:12:09.796Z,14.50
2018-04-23T07:14:37.372Z,15.07
2018-04-23T07:17:04.948Z,16.90
2018-04-23T07:19:32.634Z,20.67
2018-04-23T07:22:00.233Z,12.30
2018-04-23T07:24:27.826Z,15.93
2018-04-23T07:26:55.485Z,16.30
2018-04-23T07:29:23.170Z,15.80
2018-04-23T07:31:50.782Z,13.43
2018-04-23T07:34:18.378Z,12.63
2018-04-23T07:36:45.992Z,17.13
2018-04-23T07:39:14.430Z,14.77
2018-04-23T07:41:42.028Z,12.47
2018-04-23T07:44:09.670Z,15.13
2018-04-23T07:46:37.270Z,19.67
2018-04-23T07:49:05.667Z,20.33
2018-04-23T07:51:33.263Z,13.13
2018-04-23T07:54:00.919Z,11.97
2018-04-23T07:56:28.524Z,12.73
2018-04-23T07:58:56.170Z,14.40
2018-04-23T08:01:23.777Z,12.43
2018-04-23T08:03:51.429Z,14.60
2018-04-23T08:06:19.152Z,11.03
2018-04-23T08:08:46.799Z,14.07
2018-04-23T08:11:14.439Z,13.77
2018-04-23T08:13:42.040Z,11.30
2018-04-23T08:16:09.673Z,14.40
2018-04-23T08:18:37.280Z,7.17
2018-04-23T08:21:04.924Z,7.97
2018-04-23T08:23:32.560Z,12.07
2018-04-23T08:26:00.959Z,11.80
2018-04-23T08:28:28.592Z,13.93
2018-04-23T08:30:56.219Z,11.27
2018-04-23T08:33:23.864Z,12.97
2018-04-23T08:35:51.506Z,10.40
2018-04-23T08:38:19.103Z,12.83
2018-04-23T08:40:46.731Z,16.87
2018-04-23T08:43:14.311Z,15.50
2018-04-23T08:45:41.960Z,11.50
2018-04-23T08:48:10.365Z,15.57
2018-04-23T08:50:37.960Z,10.20
2018-04-23T08:53:05.632Z,15.13
2018-04-23T08:55:33.285Z,13.97
2018-04-23T08:58:00.893Z,13.47
2018-04-23T09:00:29.285Z,9.10
2018-04-23T09:02:56.889Z,9.00
2018-04-23T09:05:24.525Z,10.83
2018-04-23T09:07:52.148Z,12.53
2018-04-23T09:10:19.797Z,15.00
2018-04-23T09:12:47.422Z,14.60
2018-04-23T09:15:15.088Z,13.17
2018-04-23T09:17:42.762Z,8.03
2018-04-23T09:20:10.528Z,13.83
2018-04-23T09:22:38.151Z,8.97
2018-04-23T09:25:05.829Z,5.70
2018-04-23T09:27:33.449Z,11.63
2018-04-23T09:30:01.090Z,10.70
2018-04-23T09:32:28.709Z,10.00
2018-04-23T09:34:57.126Z,14.53
2018-04-23T09:37:25.000Z,9.43
2018-04-23T09:39:52.631Z,7.70
2018-04-23T09:42:20.265Z,12.30
2018-04-23T09:44:47.857Z,6.60
2018-04-23T09:47:16.764Z,8.80
2018-04-23T09:49:44.550Z,8.03
2018-04-23T09:52:12.187Z,5.47
2018-04-23T09:54:39.772Z,4.03
2018-04-23T09:57:07.492Z,6.43
2018-04-23T09:59:35.084Z,7.23
2018-04-23T10:02:02.773Z,8.20
2018-04-23T10:04:30.400Z,5.87
2018-04-23T10:06:58.792Z,5.77
2018-04-23T10:09:26.476Z,10.27
2018-04-23T10:11:54.101Z,5.33
2018-04-23T10:14:21.695Z,4.07
2018-04-23T10:16:49.381Z,6.97
2018-04-23T10:19:17.009Z,6.03
2018-04-23T10:21:44.650Z,5.10
2018-04-23T10:24:13.047Z,5.87
2018-04-23T10:26:41.460Z,6.40
2018-04-23T10:29:09.131Z,6.00
2018-04-23T10:31:36.767Z,8.00
2018-04-23T10:34:04.404Z,3.93
2018-04-23T10:36:32.753Z,1.97
2018-04-23T10:39:00.425Z,4.17
2018-04-23T10:41:28.020Z,2.37
2018-04-23T10:43:56.595Z,5.83
2018-04-23T10:46:24.224Z,2.80
2018-04-23T10:48:51.881Z,2.90
2018-04-23T10:51:19.518Z,6.87
2018-04-23T10:53:47.152Z,3.93
2018-04-23T10:56:14.780Z,3.63
2018-04-23T10:58:42.380Z,3.43
2018-04-23T11:01:10.004Z,2.23
2018-04-23T11:03:37.658Z,5.37
2018-04-23T11:06:05.276Z,2.63
2018-04-23T11:08:32.920Z,2.20
2018-04-23T11:11:00.563Z,2.83
2018-04-23T11:13:28.181Z,5.80
2018-04-23T11:15:56.568Z,3.37
2018-04-23T11:18:24.200Z,3.70
2018-04-23T11:20:51.934Z,2.93
2018-04-23T11:23:19.554Z,2.20
2018-04-23T11:25:47.176Z,2.10
2018-04-23T11:28:14.811Z,3.20
2018-04-23T11:30:42.459Z,3.10
2018-04-23T11:33:10.077Z,2.53
2018-04-23T11:35:37.752Z,3.97
2018-04-23T11:38:05.473Z,2.27
2018-04-23T11:40:33.157Z,3.43
2018-04-23T11:43:00.788Z,3.43
2018-04-23T11:45:28.411Z,2.27
2018-04-23T11:47:56.041Z,4.83
2018-04-23T11:50:23.665Z,6.47
2018-04-23T11:52:52.766Z,10.97
2018-04-23T11:55:22.029Z,2.73
2018-04-23T11:57:49.704Z,0.77
2018-04-23T12:00:18.098Z,1.40
2018-04-23T12:02:45.747Z,2.63
2018-04-23T12:05:13.344Z,2.70
2018-04-23T12:07:40.988Z,2.67
2018-04-23T12:10:08.623Z,1.53
2018-04-23T12:12:36.223Z,3.07
2018-04-23T12:15:03.944Z,1.60
2018-04-23T12:17:31.528Z,2.20
2018-04-23T12:19:59.161Z,0.83
2018-04-23T12:22:26.832Z,1.73
2018-04-23T12:24:55.119Z,2.00
2018-04-23T12:27:22.745Z,1.10
2018-04-23T12:29:50.377Z,0.90
2018-04-23T12:32:17.988Z,2.27
2018-04-23T12:34:45.681Z,2.63
2018-04-23T12:37:13.337Z,2.77
2018-04-23T12:39:40.950Z,3.67
2018-04-23T12:42:08.587Z,3.03
2018-04-23T12:44:36.249Z,0.77
2018-04-23T12:47:03.857Z,1.70
2018-04-23T12:49:32.274Z,3.40
2018-04-23T12:52:00.685Z,1.63
2018-04-23T12:54:28.346Z,3.07
2018-04-23T12:56:56.068Z,2.80
2018-04-23T12:59:25.295Z,0.93
2018-04-23T13:01:52.928Z,2.80
2018-04-23T13:04:20.771Z,1.50
2018-04-23T13:06:49.375Z,2.23
2018-04-23T13:09:16.987Z,4.77
2018-04-23T13:11:44.732Z,1.73
2018-04-23T13:14:12.316Z,3.67
2018-04-23T13:16:39.933Z,2.40
2018-04-23T13:19:07.559Z,3.43
2018-04-23T13:21:35.524Z,1.97
2018-04-23T13:24:03.170Z,1.13
2018-04-23T13:26:30.792Z,3.50
2018-04-23T13:28:58.547Z,5.00
2018-04-23T13:31:26.184Z,5.10
2018-04-23T13:33:53.824Z,2.30
2018-04-23T13:36:21.476Z,4.00
2018-04-23T13:38:49.084Z,2.13
2018-04-23T13:41:16.740Z,2.57
2018-04-23T13:43:44.354Z,2.00
2018-04-23T13:46:11.969Z,3.17
2018-04-23T13:48:39.585Z,4.63
2018-04-23T13:51:07.215Z,2.47
2018-04-23T13:53:34.843Z,5.97
2018-04-23T13:56:02.440Z,1.40
2018-04-23T13:58:30.876Z,2.47
2018-04-23T14:00:58.538Z,1.73
2018-04-23T14:03:26.126Z,1.67
2018-04-23T14:05:53.800Z,2.80
2018-04-23T14:08:21.393Z,2.03
2018-04-23T14:10:49.758Z,4.33
2018-04-23T14:13:18.298Z,2.93
2018-04-23T14:15:45.898Z,3.00
2018-04-23T14:18:13.567Z,1.20
2018-04-23T14:20:41.218Z,2.33
2018-04-23T14:23:09.601Z,2.23
2018-04-23T14:25:37.242Z,1.50
2018-04-23T14:28:04.868Z,3.30
2018-04-23T14:30:32.484Z,2.87
2018-04-23T14:33:00.092Z,1.70
2018-04-23T14:35:27.754Z,1.97
2018-04-23T14:37:56.274Z,4.67
2018-04-23T14:40:23.872Z,3.23
2018-04-23T14:42:51.571Z,2.37
2018-04-23T14:45:19.283Z,1.77
2018-04-23T14:47:46.956Z,2.93
2018-04-23T14:50:14.617Z,0.83
2018-04-23T14:52:42.278Z,2.60
2018-04-23T14:55:09.919Z,3.93
2018-04-23T14:57:38.943Z,1.53
2018-04-23T15:00:09.051Z,2.37
2018-04-23T15:02:36.676Z,2.63
2018-04-23T15:05:05.700Z,2.67
2018-04-23T15:07:33.347Z,1.37
2018-04-23T15:10:01.002Z,2.87
2018-04-23T15:12:29.419Z,2.73
2018-04-23T15:14:57.182Z,2.70
2018-04-23T15:17:24.829Z,3.30
2018-04-23T15:19:52.421Z,0.53
2018-04-23T15:22:20.176Z,5.03
2018-04-23T15:24:48.678Z,1.50
2018-04-23T15:27:18.383Z,4.83
2018-04-23T15:29:46.038Z,6.23
2018-04-23T15:32:13.655Z,3.80
2018-04-23T15:34:41.281Z,4.90
2018-04-23T15:37:08.872Z,3.93
2018-04-23T15:39:36.494Z,3.07
2018-04-23T15:42:04.204Z,2.43
2018-04-23T15:44:32.624Z,3.43
2018-04-23T15:47:00.264Z,3.00
2018-04-23T15:49:28.687Z,2.53
2018-04-23T15:51:56.333Z,2.67
2018-04-23T15:54:23.932Z,1.27
2018-04-23T15:56:51.525Z,2.67
2018-04-23T15:59:19.949Z,4.77
2018-04-23T16:01:47.589Z,1.10
2018-04-23T16:04:15.307Z,2.63
2018-04-23T16:06:42.964Z,3.67
2018-04-23T16:09:10.577Z,2.57
2018-04-23T16:11:39.077Z,4.70
2018-04-23T16:14:06.746Z,3.87
2018-04-23T16:16:34.392Z,3.93
2018-04-23T16:19:03.750Z,4.57
2018-04-23T16:21:31.392Z,5.13
2018-04-23T16:23:59.063Z,5.43
2018-04-23T16:26:26.735Z,3.83
2018-04-23T16:28:54.334Z,4.40
2018-04-23T16:31:21.973Z,3.30
2018-04-23T16:33:49.680Z,4.10
2018-04-23T16:36:17.517Z,3.70
2018-04-23T16:38:45.191Z,5.33
2018-04-23T16:41:12.812Z,6.50
2018-04-23T16:43:40.442Z,4.40
2018-04-23T16:46:08.138Z,5.20
2018-04-23T16:48:36.192Z,6.03
2018-04-23T16:51:03.852Z,6.33
2018-04-23T16:53:32.221Z,4.50
2018-04-23T16:55:59.919Z,8.27
2018-04-23T16:58:27.542Z,6.03
2018-04-23T17:00:55.947Z,4.93
2018-04-23T17:03:24.365Z,8.23
2018-04-23T17:05:53.448Z,6.67
2018-04-23T17:08:21.072Z,6.30
2018-04-23T17:10:48.705Z,5.13
2018-04-23T17:13:16.353Z,8.63
2018-04-23T17:15:44.042Z,6.50
2018-04-23T17:18:11.694Z,9.40
2018-04-23T17:20:39.452Z,6.83
2018-04-23T17:23:07.144Z,8.63
2018-04-23T17:25:34.797Z,8.33
2018-04-23T17:28:03.305Z,7.00
2018-04-23T17:30:31.751Z,5.57
2018-04-23T17:32:59.402Z,7.20
2018-04-23T17:35:27.806Z,7.67
2018-04-23T17:37:55.436Z,7.87
2018-04-23T17:40:23.058Z,7.50
2018-04-23T17:42:51.471Z,10.30
2018-04-23T17:45:19.160Z,9.83
2018-04-23T17:47:46.860Z,7.13
2018-04-23T17:50:14.712Z,6.33
2018-04-23T17:52:42.356Z,13.27
2018-04-23T17:55:09.967Z,7.57
2018-04-23T17:57:37.678Z,10.30
2018-04-23T18:00:05.368Z,8.90
2018-04-23T18:02:33.008Z,7.23
2018-04-23T18:05:01.438Z,7.20
2018-04-23T18:07:30.175Z,5.77
2018-04-23T18:09:58.185Z,8.93
2018-04-23T18:12:28.786Z,9.07
2018-04-23T18:14:58.921Z,10.77
2018-04-23T18:17:27.212Z,9.07
2018-04-23T18:19:54.832Z,6.10
2018-04-23T18:22:23.261Z,11.10
2018-04-23T18:24:52.361Z,6.43
2018-04-23T18:27:20.770Z,13.60
2018-04-23T18:29:48.504Z,15.60
2018-04-23T18:32:16.156Z,11.47
2018-04-23T18:34:43.794Z,7.10
2018-04-23T18:37:11.500Z,6.33
2018-04-23T18:39:39.241Z,6.80
2018-04-23T18:42:07.704Z,10.27
2018-04-23T18:44:36.205Z,6.40
2018-04-23T18:47:04.153Z,10.60
2018-04-23T18:49:31.886Z,8.17
2018-04-23T18:51:59.878Z,8.80
2018-04-23T18:54:27.607Z,15.77
2018-04-23T18:56:55.301Z,14.37
2018-04-23T18:59:23.842Z,8.77
2018-04-23T19:01:51.598Z,8.60
2018-04-23T19:04:19.283Z,9.37
2018-04-23T19:06:48.090Z,10.80
2018-04-23T19:09:16.700Z,7.27
2018-04-23T19:11:45.654Z,7.07
2018-04-23T19:14:13.348Z,7.93
2018-04-23T19:16:42.290Z,7.60
2018-04-23T19:19:10.024Z,8.83
2018-04-23T19:21:40.273Z,10.57
2018-04-23T19:24:07.983Z,8.60
2018-04-23T19:26:35.725Z,10.37
2018-04-23T19:29:03.430Z,16.00
2018-04-23T19:31:32.009Z,11.30
2018-04-23T19:34:01.007Z,15.83
2018-04-23T19:36:36.548Z,17.07
2018-04-23T19:39:05.870Z,9.20
2018-04-23T19:41:33.887Z,7.07
2018-04-23T19:44:02.275Z,9.43
2018-04-23T19:46:31.302Z,8.80
2018-04-23T19:48:58.996Z,11.90
2018-04-23T19:51:26.884Z,7.90
2018-04-23T19:53:54.581Z,11.23
2018-04-23T19:56:22.326Z,7.73
2018-04-23T19:58:50.948Z,8.10
2018-04-23T20:01:18.774Z,15.87
2018-04-23T20:03:46.472Z,9.57
2018-04-23T20:06:14.201Z,11.20
2018-04-23T20:08:43.456Z,10.23
2018-04-23T20:11:11.194Z,11.60
2018-04-23T20:13:39.645Z,15.57
2018-04-23T20:16:09.641Z,9.93
2018-04-23T20:18:37.397Z,9.07
2018-04-23T20:21:05.185Z,13.03
2018-04-23T20:23:33.053Z,10.43
2018-04-23T20:26:00.664Z,8.83
2018-04-23T20:28:28.463Z,9.87
2018-04-23T20:30:56.148Z,9.53
2018-04-23T20:33:24.615Z,6.67
2018-04-23T20:35:52.282Z,10.53
2018-04-23T20:38:19.904Z,8.40
2018-04-23T20:40:49.579Z,9.07
2018-04-23T20:43:17.238Z,7.50
2018-04-23T20:45:45.034Z,9.70
2018-04-23T20:48:13.441Z,7.27
2018-04-23T20:50:41.119Z,4.93
2018-04-23T20:53:08.768Z,8.53
2018-04-23T20:55:37.253Z,8.47
2018-04-23T20:58:04.885Z,8.53
2018-04-23T21:00:32.539Z,6.13
2018-04-23T21:03:00.200Z,8.37
2018-04-23T21:05:29.376Z,11.37
2018-04-23T21:07:58.517Z,5.20
2018-04-23T21:10:27.286Z,7.10
2018-04-23T21:12:54.946Z,8.70
2018-04-23T21:15:22.667Z,4.13
2018-04-23T21:17:50.347Z,9.27
2018-04-23T21:20:17.983Z,4.37
2018-04-23T21:22:45.641Z,5.00
2018-04-23T21:25:13.462Z,7.80
2018-04-23T21:27:41.969Z,5.67
2018-04-23T21:30:09.620Z,4.90
2018-04-23T21:32:38.271Z,4.83
2018-04-23T21:35:05.931Z,7.60
2018-04-23T21:37:33.612Z,4.50
2018-04-23T21:40:01.234Z,4.47
2018-04-23T21:42:29.636Z,4.97
2018-04-23T21:44:57.279Z,6.30
2018-04-23T21:47:24.920Z,5.33
2018-04-23T21:49:52.517Z,4.03
2018-04-23T21:52:20.972Z,4.60
2018-04-23T21:54:48.988Z,3.23
2018-04-23T21:57:16.596Z,7.30
2018-04-23T21:59:44.231Z,3.77
2018-04-23T22:02:11.911Z,4.40
2018-04-23T22:04:39.515Z,7.57
2018-04-23T22:07:07.133Z,4.27
2018-04-23T22:09:35.644Z,6.30
2018-04-23T22:12:03.307Z,7.47
2018-04-23T22:14:30.941Z,3.73
2018-04-23T22:16:58.637Z,2.70
2018-04-23T22:19:27.612Z,3.80
2018-04-23T22:21:55.240Z,4.93
2018-04-23T22:24:22.842Z,7.47
2018-04-23T22:26:50.529Z,5.47
2018-04-23T22:29:18.176Z,3.80
2018-04-23T22:31:47.066Z,2.40
2018-04-23T22:34:16.187Z,4.00
2018-04-23T22:36:46.067Z,4.93
2018-04-23T22:39:14.688Z,2.93
2018-04-23T22:41:42.326Z,2.70
2018-04-23T22:44:10.423Z,5.07
2018-04-23T22:46:38.724Z,4.23
2018-04-23T22:49:08.034Z,3.63
2018-04-23T22:51:36.655Z,3.40
2018-04-23T22:54:04.570Z,1.80
2018-04-23T22:56:32.180Z,2.60
2018-04-23T22:58:59.809Z,3.83
2018-04-23T23:01:28.224Z,2.30
2018-04-23T23:03:56.002Z,2.97
2018-04-23T23:06:23.853Z,2.50
2018-04-23T23:08:51.677Z,1.80
2018-04-23T23:11:19.461Z,1.70
2018-04-23T23:13:47.650Z,1.80
2018-04-23T23:16:15.705Z,1.90
2018-04-23T23:18:43.444Z,3.50
2018-04-23T23:21:11.236Z,4.33
2018-04-23T23:23:39.017Z,2.03
2018-04-23T23:26:06.684Z,2.10
2018-04-23T23:28:34.350Z,1.30
2018-04-23T23:31:02.824Z,2.10
2018-04-23T23:33:31.580Z,1.27
2018-04-23T23:35:59.268Z,1.40
2018-04-23T23:38:27.220Z,2.80
2018-04-23T23:40:54.849Z,1.97
2018-04-23T23:43:22.469Z,2.73
2018-04-23T23:45:50.105Z,0.80
2018-04-23T23:48:17.829Z,1.67
2018-04-23T23:50:46.273Z,1.20
2018-04-23T23:53:14.031Z,0.93
2018-04-23T23:55:41.800Z,1.90
2018-04-23T23:58:09.501Z,1.97
